createdAt,value
2019-04-20T00:01:35.383Z,12.35
2019-04-20T00:04:03.190Z,9.03
2019-04-20T00:06:31.748Z,8.95
2019-04-20T00:09:04.685Z,9.75
2019-04-20T00:11:36.514Z,9.70
2019-04-20T00:14:04.097Z,9.30
2019-04-20T00:16:23.316Z,9.15
2019-04-20T00:18:53.939Z,9.28
2019-04-20T00:21:46.962Z,10.28
2019-04-20T00:24:15.651Z,9.88
2019-04-20T00:29:27.721Z,11.40
2019-04-20T00:31:45.855Z,9.53
2019-04-20T00:34:09.164Z,8.90
2019-04-20T00:36:32.879Z,10.40
2019-04-20T00:39:02.656Z,9.73
2019-04-20T00:41:34.086Z,10.53
2019-04-20T00:44:04.684Z,8.75
2019-04-20T00:46:33.618Z,10.32
2019-04-20T00:49:06.893Z,11.80
2019-04-20T00:51:39.410Z,8.58
2019-04-20T00:53:57.298Z,9.93
2019-04-20T00:56:24.361Z,8.08
2019-04-20T00:59:06.421Z,8.30
2019-04-20T01:01:37.900Z,10.82
2019-04-20T01:04:06.875Z,9.25
2019-04-20T01:06:39.541Z,8.43
2019-04-20T01:08:53.035Z,9.85
2019-04-20T01:11:27.000Z,9.20
2019-04-20T01:13:52.717Z,8.58
2019-04-20T01:16:25.526Z,8.48
2019-04-20T01:18:47.226Z,9.93
2019-04-20T01:21:18.041Z,9.18
2019-04-20T01:23:50.700Z,9.25
2019-04-20T01:26:14.493Z,7.78
2019-04-20T01:28:56.625Z,8.23
2019-04-20T01:31:18.662Z,8.80
2019-04-20T01:33:48.348Z,10.98
2019-04-20T01:36:25.557Z,8.08
2019-04-20T01:38:47.610Z,7.87
2019-04-20T01:41:01.235Z,8.98
2019-04-20T01:43:29.059Z,9.03
2019-04-20T01:46:03.306Z,12.28
2019-04-20T01:48:30.155Z,9.68
2019-04-20T01:51:19.585Z,10.13
2019-04-20T01:54:00.471Z,8.88
2019-04-20T01:56:31.594Z,10.63
2019-04-20T01:59:04.616Z,9.80
2019-04-20T02:01:21.103Z,9.68
2019-04-20T02:03:57.162Z,8.40
2019-04-20T02:06:39.926Z,10.75
2019-04-20T02:09:06.726Z,9.63
2019-04-20T02:11:34.492Z,13.80
2019-04-20T02:14:00.418Z,10.28
2019-04-20T02:16:33.664Z,10.58
2019-04-20T02:19:26.621Z,9.83
2019-04-20T02:21:55.451Z,8.53
2019-04-20T02:24:10.922Z,10.08
2019-04-20T02:26:38.843Z,10.55
2019-04-20T02:29:30.694Z,11.08
2019-04-20T02:32:11.678Z,10.63
2019-04-20T02:34:57.734Z,10.58
2019-04-20T02:40:16.014Z,11.35
2019-04-20T02:42:34.681Z,8.95
2019-04-20T02:45:14.790Z,9.98
2019-04-20T02:47:33.822Z,9.90
2019-04-20T02:50:15.719Z,10.88
2019-04-20T02:55:06.368Z,9.18
2019-04-20T03:02:06.384Z,10.03
2019-04-20T03:04:29.060Z,10.63
2019-04-20T03:07:04.162Z,10.43
2019-04-20T03:09:36.430Z,10.08
2019-04-20T03:12:10.614Z,12.05
2019-04-20T03:14:26.525Z,11.88
2019-04-20T03:17:12.752Z,11.97
2019-04-20T03:19:30.212Z,9.20
2019-04-20T03:22:05.190Z,7.87
2019-04-20T03:24:33.741Z,9.63
2019-04-20T03:26:56.672Z,8.35
2019-04-20T03:29:47.010Z,8.63
2019-04-20T03:32:49.986Z,9.43
2019-04-20T03:37:22.199Z,9.73
2019-04-20T03:39:41.648Z,10.28
2019-04-20T03:41:54.874Z,9.43
2019-04-20T03:44:25.620Z,10.80
2019-04-20T03:46:54.078Z,9.30
2019-04-20T03:49:43.912Z,10.85
2019-04-20T03:52:23.434Z,9.88
2019-04-20T03:55:01.358Z,10.88
2019-04-20T03:57:51.393Z,11.63
2019-04-20T04:00:30.439Z,11.38
2019-04-20T04:03:12.383Z,12.20
2019-04-20T04:05:36.870Z,9.70
2019-04-20T04:08:04.308Z,12.10
2019-04-20T04:10:35.323Z,9.98
2019-04-20T04:13:05.300Z,10.68
2019-04-20T04:15:36.146Z,12.13
2019-04-20T04:18:07.375Z,10.08
2019-04-20T04:20:38.799Z,12.58
2019-04-20T04:23:18.431Z,11.43
2019-04-20T04:25:39.751Z,11.45
2019-04-20T04:28:12.917Z,10.75
2019-04-20T04:30:34.197Z,10.18
2019-04-20T04:33:32.197Z,12.85
2019-04-20T04:35:38.818Z,11.28
2019-04-20T04:38:14.293Z,10.78
2019-04-20T04:40:53.655Z,10.23
2019-04-20T04:43:10.233Z,10.05
2019-04-20T04:45:23.624Z,11.20
2019-04-20T04:47:47.393Z,10.98
2019-04-20T04:50:19.257Z,13.53
2019-04-20T04:52:52.206Z,11.75
2019-04-20T04:55:25.000Z,13.22
2019-04-20T04:57:39.221Z,12.75
2019-04-20T05:00:16.571Z,11.60
2019-04-20T05:02:46.457Z,13.08
2019-04-20T05:05:47.419Z,10.63
2019-04-20T05:08:01.667Z,11.78
2019-04-20T05:10:18.968Z,10.45
2019-04-20T05:12:46.050Z,11.60
2019-04-20T05:15:22.608Z,10.55
2019-04-20T05:18:02.094Z,11.38
2019-04-20T05:20:31.946Z,11.38
2019-04-20T05:23:02.579Z,12.03
2019-04-20T05:25:55.584Z,11.40
2019-04-20T05:28:19.143Z,13.72
2019-04-20T05:30:40.322Z,10.65
2019-04-20T05:33:07.788Z,10.43
2019-04-20T05:35:49.662Z,9.10
2019-04-20T05:38:25.663Z,12.40
2019-04-20T05:40:45.909Z,11.00
2019-04-20T05:43:26.469Z,10.78
2019-04-20T05:45:43.755Z,9.15
2019-04-20T05:48:11.947Z,10.32
2019-04-20T05:50:45.298Z,11.38
2019-04-20T05:53:14.761Z,10.23
2019-04-20T05:55:43.307Z,10.75
2019-04-20T05:58:08.947Z,9.98
2019-04-20T06:00:41.245Z,10.65
2019-04-20T06:03:07.372Z,8.55
2019-04-20T06:05:43.237Z,10.03
2019-04-20T06:08:05.160Z,10.63
2019-04-20T06:10:42.159Z,8.65
2019-04-20T06:13:11.394Z,9.85
2019-04-20T06:15:55.993Z,9.83
2019-04-20T06:18:32.647Z,11.38
2019-04-20T06:21:17.212Z,10.35
2019-04-20T06:26:44.255Z,11.45
2019-04-20T06:28:53.938Z,11.10
2019-04-20T06:31:35.618Z,12.70
2019-04-20T06:34:30.496Z,12.30
2019-04-20T06:37:00.518Z,10.40
2019-04-20T06:39:38.626Z,9.45
2019-04-20T06:42:21.563Z,11.43
2019-04-20T06:44:57.549Z,11.85
2019-04-20T06:47:17.673Z,11.43
2019-04-20T06:50:00.442Z,10.63
2019-04-20T06:52:26.175Z,9.83
2019-04-20T06:54:58.139Z,11.28
2019-04-20T06:57:33.229Z,9.73
2019-04-20T07:02:31.416Z,9.90
2019-04-20T07:04:59.674Z,9.88
2019-04-20T07:07:45.435Z,8.55
2019-04-20T07:10:16.327Z,11.50
2019-04-20T07:12:39.596Z,10.90
2019-04-20T07:15:21.349Z,11.85
2019-04-20T07:20:35.104Z,11.10
2019-04-20T07:23:13.537Z,12.80
2019-04-20T07:25:34.540Z,13.28
2019-04-20T07:28:09.733Z,8.80
2019-04-20T07:30:29.677Z,8.65
2019-04-20T07:32:57.946Z,7.92
2019-04-20T07:41:24.870Z,9.85
2019-04-20T07:43:48.751Z,8.90
2019-04-20T07:46:20.834Z,6.75
2019-04-20T07:48:54.096Z,7.85
2019-04-20T07:51:12.173Z,8.23
2019-04-20T07:54:10.749Z,8.73
2019-04-20T07:56:39.365Z,11.25
2019-04-20T07:58:52.722Z,9.08
2019-04-20T08:02:01.534Z,12.00
2019-04-20T08:04:33.502Z,7.12
2019-04-20T08:07:09.137Z,6.92
2019-04-20T08:09:39.360Z,7.30
2019-04-20T08:12:28.173Z,7.70
2019-04-20T08:15:01.449Z,9.68
2019-04-20T08:17:47.984Z,6.95
2019-04-20T08:19:50.913Z,7.00
2019-04-20T08:22:19.942Z,5.75
2019-04-20T08:24:46.858Z,7.33
2019-04-20T08:27:05.943Z,6.40
2019-04-20T08:29:45.184Z,7.60
2019-04-20T08:32:25.862Z,6.40
2019-04-20T08:35:02.065Z,7.97
2019-04-20T08:37:20.689Z,7.90
2019-04-20T08:39:58.814Z,8.25
2019-04-20T08:42:21.797Z,5.15
2019-04-20T08:45:00.080Z,7.75
2019-04-20T08:47:32.683Z,6.20
2019-04-20T08:50:16.533Z,10.10
2019-04-20T08:55:07.188Z,8.03
2019-04-20T08:57:15.854Z,7.40
2019-04-20T08:59:44.334Z,4.80
2019-04-20T09:02:15.076Z,7.00
2019-04-20T09:04:48.999Z,7.83
2019-04-20T09:07:15.277Z,6.25
2019-04-20T09:10:00.786Z,6.90
2019-04-20T09:12:24.393Z,7.42
2019-04-20T09:14:41.088Z,8.45
2019-04-20T09:17:29.680Z,8.98
2019-04-20T09:19:58.631Z,9.18
2019-04-20T09:22:40.513Z,8.78
2019-04-20T09:25:35.291Z,6.97
2019-04-20T09:27:39.740Z,6.28
2019-04-20T09:30:09.023Z,6.92
2019-04-20T09:32:43.932Z,11.48
2019-04-20T09:35:17.383Z,10.20
2019-04-20T09:37:53.087Z,8.80
2019-04-20T09:40:26.947Z,6.30
2019-04-20T09:42:39.198Z,5.95
2019-04-20T09:45:13.348Z,6.65
2019-04-20T09:47:43.590Z,8.65
2019-04-20T09:50:24.732Z,7.92
2019-04-20T09:52:51.686Z,7.12
2019-04-20T09:55:18.425Z,5.90
2019-04-20T09:57:49.948Z,7.62
2019-04-20T10:00:15.525Z,9.35
2019-04-20T10:02:33.045Z,9.30
2019-04-20T10:04:57.957Z,8.05
2019-04-20T10:07:27.794Z,5.97
2019-04-20T10:09:53.854Z,8.33
2019-04-20T10:12:21.905Z,9.93
2019-04-20T10:14:49.054Z,6.87
2019-04-20T10:17:15.901Z,7.80
2019-04-20T10:19:44.474Z,6.05
2019-04-20T10:22:10.906Z,6.92
2019-04-20T10:24:38.877Z,6.50
2019-04-20T10:27:06.310Z,7.65
2019-04-20T10:29:33.599Z,9.25
2019-04-20T10:32:01.629Z,7.30
2019-04-20T10:34:28.547Z,8.28
2019-04-20T10:37:03.876Z,10.20
2019-04-20T10:39:32.404Z,9.78
2019-04-20T10:42:02.443Z,8.08
2019-04-20T10:44:27.670Z,9.40
2019-04-20T10:46:54.403Z,9.68
2019-04-20T10:49:20.823Z,6.70
2019-04-20T10:51:47.607Z,8.88
2019-04-20T10:54:14.291Z,6.65
2019-04-20T10:56:41.456Z,7.47
2019-04-20T10:59:08.099Z,6.40
2019-04-20T11:01:35.743Z,8.93
2019-04-20T11:04:03.026Z,6.45
2019-04-20T11:06:29.551Z,13.00
2019-04-20T11:08:56.304Z,9.55
2019-04-20T11:11:26.958Z,10.03
2019-04-20T11:13:51.208Z,7.75
2019-04-20T11:16:18.081Z,8.05
2019-04-20T11:18:45.222Z,8.20
2019-04-20T11:21:11.784Z,6.20
2019-04-20T11:23:38.345Z,8.20
2019-04-20T11:26:06.246Z,9.35
2019-04-20T11:28:34.191Z,6.95
2019-04-20T11:31:01.919Z,7.03
2019-04-20T11:33:29.925Z,6.12
2019-04-20T11:35:57.075Z,6.78
2019-04-20T11:38:24.075Z,7.55
2019-04-20T11:41:02.735Z,6.00
2019-04-20T11:43:19.802Z,6.75
2019-04-20T11:45:46.763Z,10.60
2019-04-20T11:48:13.690Z,7.17
2019-04-20T11:50:40.160Z,8.50
2019-04-20T11:53:06.565Z,10.20
2019-04-20T11:55:34.079Z,7.00
2019-04-20T11:58:01.725Z,8.25
2019-04-20T12:00:52.197Z,6.97
2019-04-20T12:03:24.869Z,7.58
2019-04-20T12:05:51.492Z,5.33
2019-04-20T12:08:14.092Z,9.58
2019-04-20T12:10:44.693Z,6.00
2019-04-20T12:13:18.390Z,6.25
2019-04-20T12:15:45.498Z,21.82
2019-04-20T12:18:13.642Z,5.67
2019-04-20T12:20:40.861Z,7.33
2019-04-20T12:23:08.527Z,6.15
2019-04-20T12:25:36.717Z,7.65
2019-04-20T12:28:05.216Z,5.85
2019-04-20T12:30:33.256Z,5.55
2019-04-20T12:33:01.983Z,6.10
2019-04-20T12:35:29.900Z,7.15
2019-04-20T12:37:56.869Z,7.05
2019-04-20T12:40:23.958Z,5.10
2019-04-20T12:42:50.988Z,6.28
2019-04-20T12:45:19.881Z,5.33
2019-04-20T12:47:48.667Z,4.40
2019-04-20T12:50:17.349Z,5.95
2019-04-20T12:52:44.252Z,5.25
2019-04-20T12:55:12.340Z,4.85
2019-04-20T12:57:40.594Z,4.62
2019-04-20T13:00:11.968Z,4.55
2019-04-20T13:02:38.642Z,7.15
2019-04-20T13:05:07.200Z,4.85
2019-04-20T13:07:39.581Z,5.10
2019-04-20T13:10:03.986Z,4.35
2019-04-20T13:12:34.331Z,5.33
2019-04-20T13:15:10.588Z,5.25
2019-04-20T13:17:38.003Z,5.58
2019-04-20T13:20:06.054Z,4.90
2019-04-20T13:22:32.825Z,4.92
2019-04-20T13:24:59.260Z,3.50
2019-04-20T13:27:26.949Z,3.33
2019-04-20T13:29:54.661Z,7.28
2019-04-20T13:32:21.760Z,3.90
2019-04-20T13:34:48.249Z,3.92
2019-04-20T13:37:15.910Z,3.90
2019-04-20T13:39:42.717Z,4.10
2019-04-20T13:42:16.031Z,3.47
2019-04-20T13:44:37.370Z,4.03
2019-04-20T13:47:05.129Z,4.45
2019-04-20T13:49:31.669Z,4.85
2019-04-20T13:51:59.067Z,6.10
2019-04-20T13:54:28.042Z,4.83
2019-04-20T13:56:55.785Z,7.95
2019-04-20T13:59:36.169Z,4.15
2019-04-20T14:02:15.005Z,4.87
2019-04-20T14:04:44.504Z,4.47
2019-04-20T14:07:15.013Z,6.35
2019-04-20T14:09:39.796Z,8.85
2019-04-20T14:12:16.232Z,5.28
2019-04-20T14:14:35.056Z,4.80
2019-04-20T14:17:12.968Z,4.37
2019-04-20T14:19:39.507Z,5.40
2019-04-20T14:22:06.149Z,4.72
2019-04-20T14:24:33.153Z,6.40
2019-04-20T14:27:01.075Z,6.05
2019-04-20T14:29:27.661Z,5.95
2019-04-20T14:31:55.577Z,6.35
2019-04-20T14:34:22.804Z,5.28
2019-04-20T14:36:49.222Z,6.58
2019-04-20T14:39:16.199Z,4.80
2019-04-20T14:41:46.502Z,8.13
2019-04-20T14:44:14.027Z,4.22
2019-04-20T14:46:41.894Z,6.55
2019-04-20T14:49:08.535Z,5.45
2019-04-20T14:51:35.325Z,3.47
2019-04-20T14:54:01.787Z,7.53
2019-04-20T14:56:29.315Z,5.12
2019-04-20T14:59:01.884Z,6.62
2019-04-20T15:01:30.458Z,5.05
2019-04-20T15:04:05.788Z,6.20
2019-04-20T15:06:25.916Z,5.42
2019-04-20T15:08:58.850Z,3.40
2019-04-20T15:11:27.080Z,3.55
2019-04-20T15:13:58.509Z,3.60
2019-04-20T15:16:26.591Z,3.00
2019-04-20T15:18:58.139Z,3.77
2019-04-20T15:21:29.440Z,5.47
2019-04-20T15:23:59.493Z,3.77
2019-04-20T15:26:26.550Z,4.10
2019-04-20T15:28:54.467Z,3.80
2019-04-20T15:31:25.964Z,4.78
2019-04-20T15:33:52.822Z,7.72
2019-04-20T15:36:22.170Z,5.75
2019-04-20T15:38:49.383Z,5.12
2019-04-20T15:41:18.116Z,5.12
2019-04-20T15:43:45.410Z,6.10
2019-04-20T15:46:13.077Z,5.12
2019-04-20T15:48:41.762Z,6.83
2019-04-20T15:51:14.148Z,6.42
2019-04-20T15:53:41.761Z,7.87
2019-04-20T15:56:11.515Z,7.75
2019-04-20T15:58:36.963Z,7.17
2019-04-20T16:01:08.150Z,7.35
2019-04-20T16:03:55.313Z,6.83
2019-04-20T16:06:25.141Z,5.62
2019-04-20T16:08:54.466Z,5.05
2019-04-20T16:11:21.543Z,5.10
2019-04-20T16:13:52.983Z,4.40
2019-04-20T16:16:19.490Z,4.33
2019-04-20T16:18:46.626Z,8.00
2019-04-20T16:21:20.159Z,5.17
2019-04-20T16:23:43.625Z,4.20
2019-04-20T16:26:23.940Z,8.48
2019-04-20T16:28:50.582Z,9.68
2019-04-20T16:31:18.207Z,6.72
2019-04-20T16:33:46.360Z,5.35
2019-04-20T16:36:14.430Z,6.67
2019-04-20T16:41:34.082Z,8.28
2019-04-20T16:44:00.586Z,6.37
2019-04-20T16:46:28.099Z,6.55
2019-04-20T16:48:55.036Z,5.47
2019-04-20T16:51:22.641Z,5.00
2019-04-20T16:53:49.863Z,8.78
2019-04-20T16:56:21.027Z,5.58
2019-04-20T16:58:49.605Z,8.85
2019-04-20T17:01:17.087Z,6.65
2019-04-20T17:03:53.339Z,13.60
2019-04-20T17:06:13.790Z,10.28
2019-04-20T17:08:42.804Z,11.88
2019-04-20T17:11:09.806Z,13.38
2019-04-20T17:13:44.040Z,16.30
2019-04-20T17:16:07.789Z,8.43
2019-04-20T17:18:35.098Z,7.65
2019-04-20T17:21:07.307Z,7.35
2019-04-20T17:23:31.102Z,7.08
2019-04-20T17:25:57.924Z,10.20
2019-04-20T17:28:33.087Z,11.60
2019-04-20T17:31:19.678Z,8.80
2019-04-20T17:33:59.067Z,7.62
2019-04-20T17:36:24.576Z,6.70
2019-04-20T17:38:52.654Z,9.65
2019-04-20T17:41:36.198Z,9.93
2019-04-20T17:44:00.299Z,9.05
2019-04-20T17:46:24.448Z,8.15
2019-04-20T17:48:51.257Z,8.80
2019-04-20T17:51:31.480Z,9.28
2019-04-20T17:53:50.037Z,8.85
2019-04-20T17:56:10.326Z,9.18
2019-04-20T17:58:39.488Z,9.83
2019-04-20T18:01:34.814Z,9.38
2019-04-20T18:04:19.739Z,9.30
2019-04-20T18:06:39.757Z,10.95
2019-04-20T18:09:03.122Z,10.82
2019-04-20T18:11:22.576Z,10.15
2019-04-20T18:13:52.874Z,9.95
2019-04-20T18:16:41.870Z,9.05
2019-04-20T18:18:58.542Z,9.83
2019-04-20T18:21:24.488Z,9.00
2019-04-20T18:23:51.907Z,11.45
2019-04-20T18:26:40.970Z,10.70
2019-04-20T18:29:10.435Z,13.83
2019-04-20T18:31:17.610Z,14.93
2019-04-20T18:33:44.586Z,11.48
2019-04-20T18:36:14.311Z,12.30
2019-04-20T18:38:49.093Z,16.25
2019-04-20T18:41:18.346Z,14.75
2019-04-20T18:43:43.911Z,13.98
2019-04-20T18:46:21.913Z,16.25
2019-04-20T18:48:54.369Z,14.83
2019-04-20T18:51:01.785Z,15.50
2019-04-20T18:53:35.348Z,14.23
2019-04-20T18:55:59.487Z,14.68
2019-04-20T18:58:24.909Z,13.70
2019-04-20T19:00:52.448Z,12.63
2019-04-20T19:03:27.716Z,13.40
2019-04-20T19:05:49.544Z,14.30
2019-04-20T19:08:33.791Z,16.45
2019-04-20T19:11:00.041Z,13.00
2019-04-20T19:13:44.130Z,17.42
2019-04-20T19:16:22.703Z,15.60
2019-04-20T19:19:00.610Z,15.60
2019-04-20T19:21:15.261Z,15.40
2019-04-20T19:23:51.690Z,19.35
2019-04-20T19:26:17.263Z,18.05
2019-04-20T19:28:45.134Z,18.20
2019-04-20T19:31:22.270Z,20.37
2019-04-20T19:33:57.656Z,19.45
2019-04-20T19:36:14.675Z,20.65
2019-04-20T19:38:44.194Z,20.25
2019-04-20T19:41:16.398Z,20.00
2019-04-20T19:43:33.760Z,17.98
2019-04-20T19:46:35.607Z,18.80
2019-04-20T19:48:39.619Z,19.20
2019-04-20T19:51:22.383Z,18.32
2019-04-20T19:53:45.191Z,18.10
2019-04-20T19:56:03.730Z,18.50
2019-04-20T19:58:30.292Z,20.52
2019-04-20T20:00:54.205Z,19.60
2019-04-20T20:03:19.811Z,16.85
2019-04-20T20:05:48.898Z,19.48
2019-04-20T20:08:19.813Z,19.48
2019-04-20T20:10:44.542Z,19.00
2019-04-20T20:13:13.032Z,19.17
2019-04-20T20:15:41.755Z,19.40
2019-04-20T20:18:23.394Z,26.82
2019-04-20T20:20:55.337Z,24.60
2019-04-20T20:23:05.720Z,22.67
2019-04-20T20:25:37.307Z,23.67
2019-04-20T20:28:14.581Z,22.62
2019-04-20T20:30:35.325Z,19.62
2019-04-20T20:33:11.514Z,22.70
2019-04-20T20:35:29.786Z,19.35
2019-04-20T20:37:58.893Z,19.80
2019-04-20T20:40:29.840Z,22.07
2019-04-20T20:43:06.114Z,20.62
2019-04-20T20:45:30.814Z,24.10
2019-04-20T20:48:03.857Z,24.20
2019-04-20T20:50:37.600Z,22.13
2019-04-20T20:52:58.475Z,22.35
2019-04-20T20:55:27.215Z,26.23
2019-04-20T20:57:53.538Z,22.27
2019-04-20T21:00:22.637Z,20.95
2019-04-20T21:02:47.365Z,22.25
2019-04-20T21:05:06.705Z,23.12
2019-04-20T21:07:34.331Z,23.32
2019-04-20T21:10:00.852Z,24.18
2019-04-20T21:12:28.710Z,21.68
2019-04-20T21:14:55.281Z,24.50
2019-04-20T21:17:25.339Z,22.85
2019-04-20T21:20:07.331Z,24.40
2019-04-20T21:22:39.980Z,24.67
2019-04-20T21:24:51.128Z,25.75
2019-04-20T21:27:19.921Z,24.57
2019-04-20T21:29:51.424Z,24.75
2019-04-20T21:32:16.577Z,23.77
2019-04-20T21:34:49.190Z,25.68
2019-04-20T21:37:12.715Z,24.65
2019-04-20T21:39:44.703Z,25.88
2019-04-20T21:42:12.599Z,24.35
2019-04-20T21:44:40.315Z,24.40
2019-04-20T21:47:03.473Z,23.42
2019-04-20T21:49:43.869Z,22.48
2019-04-20T21:52:03.195Z,20.45
2019-04-20T21:54:27.681Z,22.37
2019-04-20T21:57:00.046Z,21.55
2019-04-20T21:59:28.046Z,25.45
2019-04-20T22:02:00.019Z,23.18
2019-04-20T22:04:22.488Z,23.47
2019-04-20T22:06:47.373Z,22.27
2019-04-20T22:09:14.774Z,22.90
2019-04-20T22:11:42.056Z,24.05
2019-04-20T22:14:15.890Z,22.42
2019-04-20T22:16:44.318Z,24.63
2019-04-20T22:19:20.055Z,22.48
2019-04-20T22:21:48.329Z,25.23
2019-04-20T22:24:13.740Z,22.65
2019-04-20T22:26:41.499Z,23.47
2019-04-20T22:29:00.445Z,22.67
2019-04-20T22:31:26.906Z,24.47
2019-04-20T22:33:54.374Z,24.18
2019-04-20T22:36:27.384Z,25.68
2019-04-20T22:39:11.693Z,24.75
2019-04-20T22:41:40.723Z,26.80
2019-04-20T22:44:13.600Z,24.02
2019-04-20T22:46:39.058Z,25.95
2019-04-20T22:49:20.869Z,26.37
2019-04-20T22:51:47.527Z,27.98
2019-04-20T22:54:17.234Z,23.75
2019-04-20T22:56:43.883Z,26.97
2019-04-20T22:59:06.242Z,24.50
2019-04-20T23:01:35.085Z,29.82
2019-04-20T23:03:54.886Z,26.73
2019-04-20T23:06:25.250Z,25.05
2019-04-20T23:08:57.599Z,28.83
2019-04-20T23:11:25.244Z,26.90
2019-04-20T23:13:49.992Z,25.48
2019-04-20T23:16:17.428Z,28.92
2019-04-20T23:18:44.417Z,26.30
2019-04-20T23:21:14.366Z,29.02
2019-04-20T23:23:41.493Z,29.15
2019-04-20T23:26:11.419Z,28.35
2019-04-20T23:28:40.949Z,26.40
2019-04-20T23:31:12.252Z,27.67
2019-04-20T23:33:36.047Z,27.40
2019-04-20T23:36:04.700Z,27.82
2019-04-20T23:38:32.638Z,25.05
2019-04-20T23:40:59.638Z,26.65
2019-04-20T23:43:38.472Z,26.68
2019-04-20T23:46:17.214Z,30.23
2019-04-20T23:48:44.757Z,26.73
2019-04-20T23:51:36.905Z,25.80
2019-04-20T23:53:52.250Z,26.87
2019-04-20T23:56:15.590Z,28.73
2019-04-20T23:58:44.147Z,28.02
